Time;durP1;ratioP1;P1;durP2;ratioP2;P2;SDS_P1;SDS_P2;PMS_P1;PMS_P2;Temp;Humidity;BMP_temperature;BMP_pressure;BME280_temperature;BME280_humidity;BME280_pressure;Samples;Min_cycle;Max_cycle;Signal;HPM_P1;HPM_P2
2023/04/28 00:00:07;;;;;;;6.30;3.57;;;8.00;84.10;;;7.40;52.87;101111.59;5095708;28;20597;-75
2023/04/28 00:02:39;;;;;;;5.13;3.40;;;8.00;84.10;;;7.38;53.12;101102.91;5096157;28;20551;-75
2023/04/28 00:05:13;;;;;;;9.37;3.60;;;8.00;84.50;;;7.41;53.31;101102.63;5096430;28;20189;-74
2023/04/28 00:07:45;;;;;;;4.67;3.20;;;8.00;84.80;;;7.42;53.86;101104.31;5096192;28;20189;-74
2023/04/28 00:10:19;;;;;;;6.37;3.20;;;8.10;85.20;;;7.44;54.38;101089.03;5096083;28;20185;-75
2023/04/28 00:12:51;;;;;;;5.57;3.37;;;8.00;86.20;;;7.46;53.78;101086.25;5095674;28;20682;-75
2023/04/28 00:15:22;;;;;;;6.20;3.30;;;8.00;86.10;;;7.43;54.47;101084.69;5095833;28;20546;-75
2023/04/28 00:17:54;;;;;;;4.60;3.00;;;8.00;86.20;;;7.45;54.21;101077.41;5095849;28;20201;-74
2023/04/28 00:20:26;;;;;;;4.93;3.30;;;8.00;86.40;;;7.44;53.96;101075.72;5095881;28;20276;-75
2023/04/28 00:22:58;;;;;;;4.23;3.00;;;8.00;86.10;;;7.43;54.87;101067.88;5095861;28;20185;-75
2023/04/28 00:25:31;;;;;;;4.63;3.50;;;8.00;86.90;;;7.43;54.66;101071.38;5094633;28;20192;-75
2023/04/28 00:28:03;;;;;;;9.73;3.63;;;8.00;87.20;;;7.44;55.23;101075.72;5095715;28;20236;-75
2023/04/28 00:30:35;;;;;;;6.30;3.47;;;8.00;87.90;;;7.48;55.12;101066.50;5095688;28;20197;-75
2023/04/28 00:33:07;;;;;;;4.13;3.27;;;8.10;87.70;;;7.45;54.64;101056.09;5095544;28;20212;-75
2023/04/28 00:35:39;;;;;;;6.17;3.30;;;8.10;87.00;;;7.41;56.11;101065.34;5095488;28;20633;-75
2023/04/28 00:38:11;;;;;;;4.93;3.17;;;8.00;88.60;;;7.38;56.21;101062.94;5095180;28;20627;-75
2023/04/28 00:40:44;;;;;;;6.87;3.80;;;8.00;89.20;;;7.36;56.59;101062.25;5095590;28;20189;-75
2023/04/28 00:43:16;;;;;;;6.07;3.30;;;8.00;89.70;;;7.35;56.61;101055.22;5095090;28;20561;-75
2023/04/28 00:45:48;;;;;;;7.70;4.00;;;7.90;89.60;;;7.30;56.45;101049.44;5095052;28;20594;-75
2023/04/28 00:48:22;;;;;;;5.87;3.40;;;7.90;89.60;;;7.30;55.95;101051.25;5095967;28;20302;-75
2023/04/28 00:50:54;;;;;;;7.03;3.77;;;7.90;89.30;;;7.28;55.17;101056.72;5095315;28;20279;-75
2023/04/28 00:53:27;;;;;;;6.23;3.70;;;7.90;88.10;;;7.24;54.77;101047.28;5095116;28;20209;-75
2023/04/28 00:56:00;;;;;;;5.40;3.33;;;7.90;87.90;;;7.26;55.95;101040.00;5095313;28;20189;-75
2023/04/28 00:58:34;;;;;;;5.07;3.77;;;7.90;88.60;;;7.26;54.91;101042.66;5095140;28;20236;-75
2023/04/28 01:01:08;;;;;;;4.53;3.23;;;7.90;87.70;;;7.29;54.77;101034.44;5095111;28;20211;-75
2023/04/28 01:03:42;;;;;;;6.63;3.60;;;7.90;87.50;;;7.27;55.39;101036.38;5094736;28;20221;-74
2023/04/28 01:06:16;;;;;;;6.00;3.40;;;7.90;88.20;;;7.25;56.64;101038.34;5095033;28;20271;-75
2023/04/28 01:08:52;;;;;;;6.53;3.93;;;7.90;90.00;;;7.27;56.81;101043.53;5094882;28;20229;-75
2023/04/28 01:11:25;;;;;;;8.03;3.73;;;7.90;90.20;;;7.25;56.85;101035.69;5095071;28;20279;-75
2023/04/28 01:13:58;;;;;;;5.70;3.70;;;7.90;90.30;;;7.29;57.04;101028.28;5094560;28;20216;-75
2023/04/28 01:16:31;;;;;;;5.70;3.30;;;7.90;90.20;;;7.28;56.75;101031.91;5094914;28;20200;-75
2023/04/28 01:19:07;;;;;;;4.37;3.60;;;7.90;90.20;;;7.32;56.87;101028.00;5094646;28;20231;-75
2023/04/28 01:21:39;;;;;;;7.87;3.50;;;7.90;90.20;;;7.29;56.75;101020.28;5094833;28;20192;-75
2023/04/28 01:24:12;;;;;;;5.23;3.97;;;7.90;90.30;;;7.27;56.26;101025.72;5094724;28;20189;-75
2023/04/28 01:26:45;;;;;;;4.13;3.43;;;7.90;89.80;;;7.26;57.06;101010.72;5094947;28;20193;-74
2023/04/28 01:29:16;;;;;;;7.23;3.40;;;7.90;90.20;;;7.27;56.45;101001.75;5094642;28;20246;-75
2023/04/28 01:31:48;;;;;;;6.80;3.70;;;7.90;90.00;;;7.26;56.69;101010.72;5097428;28;20189;-74
2023/04/28 01:34:20;;;;;;;5.03;3.73;;;7.90;90.00;;;7.23;56.15;101012.78;5096422;28;20209;-74
2023/04/28 01:36:52;;;;;;;6.63;3.77;;;7.90;89.40;;;7.24;55.96;101009.16;5095963;28;20653;-74
2023/04/28 01:39:34;;;;;;;5.20;3.60;;;7.90;88.60;;;7.15;55.52;101016.16;5095580;28;20634;-74
2023/04/28 01:42:06;;;;;;;6.73;3.67;;;7.80;88.90;;;7.20;55.69;101007.75;5096302;28;20189;-74
2023/04/28 01:44:38;;;;;;;8.23;3.90;;;7.90;88.90;;;7.20;55.75;101011.25;5095220;28;20234;-74
2023/04/28 01:47:10;;;;;;;5.73;3.70;;;7.90;88.70;;;7.17;54.71;101003.53;5094223;28;20223;-74
2023/04/28 01:49:42;;;;;;;6.90;3.73;;;7.80;87.50;;;7.19;55.05;101001.59;5093859;28;20228;-75
2023/04/28 01:52:14;;;;;;;5.47;3.40;;;7.90;87.80;;;7.18;56.07;100993.72;5093831;28;20275;-75
2023/04/28 01:54:47;;;;;;;4.97;4.07;;;7.90;89.10;;;7.16;56.07;100988.53;5094147;28;20213;-75
2023/04/28 01:57:19;;;;;;;8.47;4.00;;;7.80;89.00;;;7.18;55.42;100986.59;5094151;28;20215;-75
2023/04/28 01:59:53;;;;;;;5.20;3.47;;;7.90;88.90;;;7.19;54.88;100976.78;5093777;28;20605;-75
2023/04/28 02:02:24;;;;;;;5.40;4.10;;;7.90;88.20;;;7.18;54.54;100983.06;5094119;28;20189;-75
2023/04/28 02:04:56;;;;;;;6.60;3.97;;;7.90;87.30;;;7.18;54.61;100973.28;5094063;28;20196;-75
2023/04/28 02:07:28;;;;;;;6.27;3.77;;;7.90;87.40;;;7.18;54.97;100965.28;5093876;28;20208;-75
2023/04/28 02:10:01;;;;;;;5.43;3.63;;;7.90;87.60;;;7.13;53.97;100965.66;5093994;28;20228;-75
2023/04/28 02:12:33;;;;;;;6.23;3.80;;;7.80;86.40;;;7.17;54.68;100963.59;5093484;28;20663;-75
2023/04/28 02:15:07;;;;;;;6.30;4.10;;;7.90;87.30;;;7.07;53.93;100970.69;5093832;28;20189;-75
2023/04/28 02:17:38;;;;;;;6.27;3.97;;;7.80;86.20;;;7.13;54.75;100963.00;5093748;28;20188;-75
2023/04/28 02:20:13;;;;;;;6.30;3.50;;;7.80;87.30;;;7.12;54.61;100969.31;5093659;28;20228;-75
2023/04/28 02:22:45;;;;;;;6.27;3.57;;;7.80;87.00;;;7.11;54.77;100966.78;5093717;28;20199;-75
2023/04/28 02:25:19;;;;;;;6.30;3.50;;;7.80;87.10;;;7.10;54.66;100965.09;5093661;28;20193;-75
2023/04/28 02:27:51;;;;;;;6.27;3.77;;;7.80;87.00;;;7.08;54.48;100961.72;5093508;28;20193;-75
2023/04/28 02:30:22;;;;;;;4.90;3.87;;;7.80;86.60;;;7.09;54.67;100948.28;5093586;28;20211;-75
2023/04/28 02:32:54;;;;;;;5.87;3.63;;;7.80;87.30;;;7.11;54.74;100950.81;5093212;28;20189;-75
2023/04/28 02:35:27;;;;;;;6.17;3.90;;;7.80;87.30;;;7.10;54.24;100959.75;5093211;28;20711;-75
2023/04/28 02:37:59;;;;;;;5.40;3.53;;;7.80;86.50;;;7.09;54.14;100952.75;5093425;28;20207;-73
2023/04/28 02:40:32;;;;;;;6.67;4.10;;;7.80;86.60;;;7.03;54.76;100937.31;5093440;28;20189;-74
2023/04/28 02:43:04;;;;;;;7.93;3.63;;;7.80;86.50;;;7.06;54.05;100937.03;5093159;28;20641;-74
2023/04/28 02:45:36;;;;;;;5.00;3.50;;;7.80;86.60;;;7.05;54.33;100936.19;5093123;28;20193;-74
2023/04/28 02:48:07;;;;;;;7.70;4.23;;;7.80;86.30;;;7.05;54.11;100924.72;5094984;28;20193;-74
2023/04/28 02:50:39;;;;;;;5.67;4.20;;;7.80;86.30;;;7.05;54.25;100935.38;5097581;28;20258;-74
2023/04/28 02:53:09;;;;;;;6.03;3.80;;;7.80;86.90;;;7.05;53.97;100930.06;5097576;28;20196;-74
2023/04/28 02:55:42;;;;;;;6.27;3.73;;;7.80;86.00;;;7.05;54.97;100922.06;5097438;28;20208;-74
2023/04/28 02:58:16;;;;;;;5.67;3.33;;;7.80;87.10;;;7.06;54.79;100918.41;5097440;28;20229;-74
2023/04/28 03:00:49;;;;;;;5.07;3.43;;;7.80;87.20;;;7.04;54.29;100915.06;5097052;28;20588;-74
2023/04/28 03:03:20;;;;;;;5.30;3.37;;;7.70;86.10;;;7.04;54.23;100917.72;5097078;28;20642;-74
2023/04/28 03:05:52;;;;;;;5.70;3.80;;;7.70;86.40;;;7.06;54.85;100907.75;5096964;28;20590;-74
2023/04/28 03:08:24;;;;;;;7.13;3.77;;;7.80;87.30;;;7.02;53.94;100912.50;5097218;28;20235;-74
2023/04/28 03:10:57;;;;;;;6.57;3.90;;;7.70;86.30;;;7.04;54.85;100904.41;5097259;28;20231;-74
2023/04/28 03:13:29;;;;;;;5.33;3.27;;;7.80;87.00;;;7.05;55.05;100898.09;5097081;28;20224;-75
2023/04/28 03:16:01;;;;;;;6.00;3.77;;;7.80;87.50;;;7.03;55.83;100892.91;5097778;28;20196;-74
2023/04/28 03:18:33;;;;;;;5.67;4.00;;;7.80;88.20;;;7.05;55.62;100892.78;5097076;28;20260;-74
2023/04/28 03:21:05;;;;;;;7.27;3.83;;;7.80;89.30;;;6.99;55.73;100893.28;5097078;28;20189;-74
2023/04/28 03:23:37;;;;;;;9.37;4.23;;;7.70;88.50;;;6.95;55.72;100890.06;5097080;28;20193;-74
2023/04/28 03:26:10;;;;;;;6.17;3.60;;;7.60;88.30;;;6.99;56.54;100893.28;5096649;28;20531;-74
2023/04/28 03:28:43;;;;;;;7.10;4.03;;;7.70;89.50;;;6.99;56.81;100885.31;5096786;28;20224;-75
2023/04/28 03:31:16;;;;;;;7.10;4.07;;;7.70;90.00;;;7.01;56.88;100880.72;5096813;28;20189;-74
2023/04/28 03:33:48;;;;;;;5.50;4.10;;;7.70;90.00;;;7.02;56.74;100882.41;5097425;28;20282;-75
2023/04/28 03:36:20;;;;;;;5.70;3.50;;;7.70;89.70;;;7.01;56.47;100881.56;5096729;28;20185;-74
2023/04/28 03:38:51;;;;;;;6.07;4.10;;;7.70;90.10;;;6.99;56.31;100875.50;5096563;28;20229;-74
2023/04/28 03:41:25;;;;;;;12.67;4.00;;;7.70;89.30;;;7.01;56.61;100864.75;5096803;28;20189;-74
2023/04/28 03:43:56;;;;;;;7.67;4.00;;;7.80;90.00;;;7.01;57.27;100873.56;5096565;28;20192;-74
2023/04/28 03:46:28;;;;;;;7.83;4.10;;;7.70;90.20;;;6.97;55.81;100868.66;5096217;28;20633;-75
2023/04/28 03:49:01;;;;;;;6.57;4.00;;;7.70;89.10;;;6.96;56.46;100858.97;5096350;28;20235;-74
2023/04/28 03:51:33;;;;;;;8.87;3.90;;;7.70;89.40;;;6.97;55.88;100865.97;5096726;28;20216;-74
2023/04/28 03:54:05;;;;;;;5.30;3.47;;;7.70;89.20;;;6.96;56.02;100856.31;5097148;28;20244;-74
2023/04/28 03:56:38;;;;;;;9.17;3.87;;;7.70;89.10;;;6.94;55.89;100859.13;5096360;28;20238;-75
2023/04/28 03:59:10;;;;;;;7.67;3.80;;;7.60;89.00;;;6.91;55.90;100854.06;5095696;28;20233;-75
2023/04/28 04:01:42;;;;;;;7.97;3.77;;;7.60;88.70;;;6.90;55.77;100846.19;5096249;28;20201;-75
2023/04/28 04:04:14;;;;;;;6.70;3.77;;;7.60;88.30;;;6.90;55.92;100846.19;5096220;28;20185;-75
2023/04/28 04:06:47;;;;;;;11.07;4.20;;;7.60;89.60;;;6.87;55.99;100841.16;5096217;28;20238;-75
2023/04/28 04:09:19;;;;;;;5.23;3.93;;;7.60;88.60;;;6.88;56.13;100840.19;5096019;28;20236;-75
2023/04/28 04:11:52;;;;;;;6.10;3.70;;;7.60;89.10;;;6.88;56.02;100840.19;5096257;28;20200;-74
2023/04/28 04:14:24;;;;;;;6.43;4.10;;;7.60;89.00;;;6.84;55.38;100841.41;5096025;28;20673;-74
2023/04/28 04:16:56;;;;;;;9.30;3.80;;;7.60;88.40;;;6.83;55.93;100834.41;5097935;28;20200;-74
2023/04/28 04:19:28;;;;;;;6.53;4.10;;;7.50;88.50;;;6.82;55.71;100832.72;5096527;28;20232;-75
2023/04/28 04:21:59;;;;;;;7.97;4.30;;;7.50;88.50;;;6.84;55.81;100841.41;5098667;28;20189;-74
2023/04/28 04:24:32;;;;;;;6.57;4.10;;;7.50;88.90;;;6.82;55.46;100832.72;5098441;28;20185;-74
2023/04/28 04:27:05;;;;;;;7.57;4.80;;;7.50;88.00;;;6.81;55.54;100833.72;5097271;28;20215;-74
2023/04/28 04:29:36;;;;;;;7.23;4.10;;;7.50;89.30;;;6.79;55.68;100830.31;5097564;28;20221;-74
2023/04/28 04:32:09;;;;;;;6.97;4.33;;;7.50;88.40;;;6.77;55.54;100824.31;5097653;28;20193;-74
2023/04/28 04:34:41;;;;;;;6.93;3.97;;;7.50;88.30;;;6.77;56.27;100822.50;5096703;28;20209;-74
2023/04/28 04:37:13;;;;;;;6.30;4.33;;;7.50;89.10;;;6.76;56.17;100828.78;5095369;28;20645;-74
2023/04/28 04:39:45;;;;;;;8.23;4.40;;;7.50;89.50;;;6.78;56.13;100823.34;5095603;28;20225;-75
2023/04/28 04:42:18;;;;;;;7.23;4.17;;;7.50;88.90;;;6.78;55.90;100828.66;5095308;28;20246;-75
2023/04/28 04:44:56;;;;;;;6.33;4.10;;;7.50;88.80;;;6.81;56.02;100828.38;5095232;28;20207;-75
2023/04/28 04:47:28;;;;;;;6.13;4.33;;;7.50;88.80;;;6.80;56.08;100824.88;5095246;28;20196;-75
2023/04/28 04:50:00;;;;;;;9.37;4.93;;;7.60;89.10;;;6.82;55.86;100824.72;5095154;28;20236;-75
2023/04/28 04:52:32;;;;;;;6.83;4.20;;;7.60;88.50;;;6.84;55.98;100815.66;5095396;28;20189;-75
2023/04/28 04:55:04;;;;;;;6.47;4.33;;;7.60;88.90;;;6.86;56.47;100818.16;5095270;28;20205;-75
2023/04/28 04:57:37;;;;;;;7.23;4.00;;;7.60;89.30;;;6.90;56.42;100819.59;5095300;28;20185;-75
2023/04/28 05:00:10;;;;;;;6.83;4.23;;;7.70;89.20;;;6.91;56.00;100826.59;5094788;28;20724;-75
2023/04/28 05:02:42;;;;;;;9.00;4.93;;;7.70;89.10;;;6.93;55.86;100817.50;5094867;28;20197;-75
2023/04/28 05:05:15;;;;;;;7.07;4.50;;;7.70;88.80;;;6.93;55.71;100819.31;5094898;28;20189;-75
2023/04/28 05:07:52;;;;;;;5.50;4.30;;;7.70;88.70;;;6.98;56.66;100811.78;5094997;28;20189;-75
2023/04/28 05:10:24;;;;;;;5.93;4.27;;;7.80;89.60;;;7.01;56.11;100814.16;5094100;28;20185;-75
2023/04/28 05:12:58;;;;;;;5.90;4.53;;;7.80;89.30;;;7.02;56.61;100813.19;5095028;28;20189;-75
2023/04/28 05:15:30;;;;;;;8.23;5.17;;;7.80;89.90;;;7.03;56.18;100813.03;5095384;28;20212;-75
2023/04/28 05:18:08;;;;;;;7.27;4.73;;;7.80;89.30;;;7.05;55.84;100805.75;5094495;28;20200;-75
2023/04/28 05:20:40;;;;;;;8.07;5.10;;;7.80;89.00;;;7.06;56.67;100807.44;5094680;28;20283;-75
2023/04/28 05:23:12;;;;;;;7.77;4.77;;;7.90;89.30;;;7.10;56.72;100810.69;5094456;28;20650;-73
2023/04/28 05:25:44;;;;;;;8.27;5.53;;;7.90;89.60;;;7.10;56.59;100810.69;5094693;28;20189;-73
2023/04/28 05:28:16;;;;;;;6.57;4.93;;;7.90;89.60;;;7.13;57.11;100810.41;5094666;28;20224;-73
2023/04/28 05:30:51;;;;;;;7.47;4.63;;;7.90;90.10;;;7.14;57.17;100806.78;5094349;28;20204;-73
2023/04/28 05:33:23;;;;;;;7.20;4.93;;;7.90;90.10;;;7.14;56.76;100796.97;5094612;28;20185;-73
2023/04/28 05:35:55;;;;;;;12.43;5.10;;;7.90;89.60;;;7.17;57.07;100795.84;5094873;28;20213;-73
2023/04/28 05:38:27;;;;;;;7.00;5.33;;;8.00;90.00;;;7.19;56.45;100795.72;5094474;28;20217;-73
2023/04/28 05:40:59;;;;;;;9.40;5.50;;;8.00;89.80;;;7.21;56.45;100793.75;5094249;28;20668;-73
2023/04/28 05:43:32;;;;;;;10.40;5.90;;;8.00;89.60;;;7.24;57.60;100791.66;5095306;28;20189;-73
2023/04/28 05:46:05;;;;;;;8.30;5.60;;;8.00;90.10;;;7.25;56.88;100793.34;5094360;28;20185;-73
2023/04/28 05:48:45;;;;;;;7.60;5.53;;;8.00;90.10;;;7.27;56.61;100791.38;5094292;28;20228;-73
2023/04/28 05:51:17;;;;;;;9.70;5.63;;;8.10;90.00;;;7.29;56.07;100788.59;5094326;28;20185;-73
2023/04/28 05:53:49;;;;;;;9.93;5.97;;;8.10;89.50;;;7.29;56.50;100789.44;5093957;28;20204;-73
2023/04/28 05:56:22;;;;;;;11.50;6.60;;;8.10;89.40;;;7.32;57.75;100794.47;5094160;28;20215;-73
2023/04/28 05:58:55;;;;;;;7.53;5.73;;;8.10;90.30;;;7.36;57.73;100790.56;5093913;28;20244;-73
2023/04/28 06:01:27;;;;;;;11.50;6.70;;;8.10;90.20;;;7.38;58.08;100788.59;5094134;28;20185;-73
2023/04/28 06:03:59;;;;;;;7.67;5.90;;;8.20;90.60;;;7.42;57.14;100783.84;5093810;28;20696;-73
2023/04/28 06:06:32;;;;;;;9.27;5.70;;;8.20;90.20;;;7.45;57.01;100772.91;5094265;28;20545;-73
2023/04/28 06:09:04;;;;;;;8.70;6.43;;;8.20;89.90;;;7.48;56.77;100768.13;5093967;28;20225;-73
2023/04/28 06:11:36;;;;;;;10.13;6.13;;;8.20;90.10;;;7.51;57.15;100764.34;5094014;28;20573;-73
2023/04/28 06:14:09;;;;;;;9.47;6.07;;;8.30;90.10;;;7.54;57.14;100770.22;5093933;28;20189;-73
2023/04/28 06:16:41;;;;;;;7.40;6.03;;;8.30;90.10;;;7.57;57.90;100772.63;5093806;28;20220;-73
2023/04/28 06:19:13;;;;;;;8.77;6.17;;;8.40;90.50;;;7.62;57.01;100759.72;5093778;28;20225;-74
2023/04/28 06:21:45;;;;;;;9.57;6.23;;;8.40;90.40;;;7.67;57.14;100761.13;5093347;28;20192;-74
2023/04/28 06:24:17;;;;;;;11.03;6.67;;;8.40;90.20;;;7.72;57.71;100764.19;5093229;28;20618;-74
2023/04/28 06:26:49;;;;;;;10.53;6.47;;;8.50;90.50;;;7.78;58.22;100763.63;5093762;28;20185;-74
2023/04/28 06:29:22;;;;;;;9.57;6.53;;;8.50;90.60;;;7.85;58.00;100762.06;5093678;28;20232;-73
2023/04/28 06:31:56;;;;;;;9.97;6.60;;;8.60;90.60;;;7.91;56.92;100761.53;5093733;28;20203;-72
2023/04/28 06:34:29;;;;;;;9.07;6.67;;;8.70;90.30;;;7.95;57.63;100761.06;5093716;28;20189;-72
2023/04/28 06:37:02;;;;;;;13.03;7.30;;;8.80;90.20;;;8.02;57.14;100767.53;5093619;28;20209;-74
2023/04/28 06:39:34;;;;;;;7.97;7.13;;;8.80;90.00;;;8.06;57.22;100762.75;5093562;28;20679;-73
2023/04/28 06:42:06;;;;;;;11.73;7.07;;;8.80;90.00;;;8.13;55.79;100755.84;5093367;28;20193;-73
2023/04/28 06:44:39;;;;;;;9.27;7.37;;;8.90;89.30;;;8.19;56.52;100760.59;5093599;28;20593;-73
2023/04/28 06:47:11;;;;;;;11.93;7.83;;;8.90;89.90;;;8.20;56.94;100758.78;5093599;28;20584;-73
2023/04/28 06:49:44;;;;;;;11.60;7.70;;;9.00;90.10;;;8.23;57.22;100764.66;5093181;28;20225;-73
2023/04/28 06:52:16;;;;;;;9.67;7.47;;;9.00;90.10;;;8.29;56.73;100758.78;5093420;28;20197;-73
2023/04/28 06:54:48;;;;;;;10.53;7.83;;;9.00;90.10;;;8.33;56.24;100762.84;5093294;28;20207;-73
2023/04/28 06:57:20;;;;;;;9.50;7.83;;;9.10;89.20;;;8.44;56.18;100757.34;5093236;28;20217;-73
2023/04/28 06:59:53;;;;;;;12.50;8.10;;;9.20;88.70;;;8.52;56.17;100754.78;5092855;28;20239;-73
2023/04/28 07:02:25;;;;;;;11.03;7.87;;;9.30;89.50;;;8.57;56.47;100757.84;5093257;28;20193;-73
2023/04/28 07:04:58;;;;;;;12.27;8.27;;;9.30;89.30;;;8.60;56.80;100757.53;5093432;28;20189;-73
2023/04/28 07:07:29;;;;;;;9.13;7.80;;;9.40;90.00;;;8.64;57.79;100742.94;5093081;28;20193;-73
2023/04/28 07:10:01;;;;;;;12.00;8.00;;;9.40;90.20;;;8.71;56.89;100742.31;5093312;28;20258;-74
2023/04/28 07:12:33;;;;;;;12.13;8.20;;;9.50;90.50;;;8.78;55.98;100746.94;5093323;28;20193;-74
2023/04/28 07:15:07;;;;;;;11.43;7.83;;;9.60;88.90;;;8.85;56.43;100740.00;5092976;28;20195;-63
2023/04/28 07:17:41;;;;;;;13.60;8.30;;;9.60;89.50;;;8.91;55.96;100734.06;5093627;28;20197;-74
2023/04/28 07:20:14;;;;;;;12.97;8.47;;;9.70;88.40;;;8.99;55.04;100747.50;5093337;28;20320;-74
2023/04/28 07:22:46;;;;;;;11.80;8.17;;;9.80;87.60;;;9.02;56.00;100741.88;5093470;28;20192;-74
2023/04/28 07:25:18;;;;;;;13.67;8.10;;;9.80;88.70;;;9.07;55.85;100733.41;5093393;28;20197;-74
2023/04/28 07:27:50;;;;;;;14.57;8.83;;;9.80;88.60;;;9.11;55.22;100732.09;5093385;28;20193;-74
2023/04/28 07:30:23;;;;;;;14.37;9.17;;;9.90;87.90;;;9.13;55.43;100727.47;5093327;28;20193;-74
2023/04/28 07:32:59;;;;;;;14.53;8.57;;;9.90;87.90;;;9.20;55.48;100722.34;5093339;28;20333;-74
2023/04/28 07:35:31;;;;;;;14.40;9.40;;;9.90;88.40;;;9.22;55.83;100723.88;5096941;28;20234;-74
2023/04/28 07:38:04;;;;;;;15.07;9.10;;;10.00;88.40;;;9.25;56.20;100731.59;5096950;28;20272;-74
2023/04/28 07:40:36;;;;;;;15.20;8.63;;;10.00;89.20;;;9.31;56.84;100735.50;5096831;28;20660;-74
2023/04/28 07:43:08;;;;;;;11.10;8.70;;;10.10;90.00;;;9.36;56.21;100733.19;5096972;28;20192;-74
2023/04/28 07:45:44;;;;;;;13.60;9.47;;;10.10;89.00;;;9.40;55.96;100735.41;5096675;28;20602;-74
2023/04/28 07:48:16;;;;;;;11.67;8.13;;;10.20;88.60;;;9.44;55.56;100733.28;5096751;28;20224;-74
2023/04/28 07:50:48;;;;;;;14.13;9.03;;;10.20;88.40;;;9.47;54.59;100728.47;5096874;28;20223;-74
2023/04/28 07:53:20;;;;;;;12.70;8.83;;;10.20;87.00;;;9.53;54.91;100735.88;5096708;28;20193;-74
2023/04/28 07:55:52;;;;;;;10.63;7.93;;;10.30;86.40;;;9.54;54.19;100726.88;5096537;28;20189;-74
2023/04/28 07:58:24;;;;;;;13.23;8.47;;;10.30;85.70;;;9.56;54.59;100726.69;5096519;28;20236;-74
2023/04/28 08:00:57;;;;;;;13.03;8.87;;;10.30;86.50;;;9.60;54.61;100720.06;5096472;28;20540;-74
2023/04/28 08:03:29;;;;;;;14.90;9.23;;;10.30;86.90;;;9.63;56.21;100723.25;5096540;28;20185;-74
2023/04/28 08:06:03;;;;;;;13.13;8.37;;;10.40;88.10;;;9.73;54.81;100714.28;5096042;28;20215;-74
2023/04/28 08:08:35;;;;;;;14.27;9.10;;;10.50;87.10;;;9.85;55.61;100713.06;5096055;28;20232;-73
2023/04/28 08:11:07;;;;;;;14.23;8.63;;;10.60;89.00;;;10.00;53.84;100706.16;5095930;28;20641;-75
2023/04/28 08:13:39;;;;;;;10.57;8.23;;;10.70;85.60;;;10.10;54.67;100713.06;5096305;28;20211;-75
2023/04/28 08:16:12;;;;;;;13.30;8.43;;;10.90;86.10;;;10.19;54.71;100714.00;5096260;28;20215;-75
2023/04/28 08:18:44;;;;;;;13.63;8.70;;;10.90;86.50;;;10.26;53.70;100711.53;5096163;28;20228;-73
2023/04/28 08:21:18;;;;;;;15.90;9.10;;;11.00;85.90;;;10.36;53.07;100717.59;5096271;28;20189;-75
2023/04/28 08:23:50;;;;;;;13.43;9.23;;;11.10;84.50;;;10.39;53.89;100706.56;5096124;28;20185;-75
2023/04/28 08:26:23;;;;;;;13.63;8.50;;;11.10;85.50;;;10.44;54.69;100712.28;5095738;28;20220;-75
2023/04/28 08:28:55;;;;;;;13.97;8.77;;;11.20;86.60;;;10.48;53.39;100711.78;5095928;28;20234;-74
2023/04/28 08:31:28;;;;;;;13.27;8.77;;;11.20;84.20;;;10.53;51.50;100714.00;5096088;28;20193;-74
2023/04/28 08:34:00;;;;;;;14.77;9.03;;;11.20;82.20;;;10.55;53.06;100712.81;5095960;28;20188;-75
2023/04/28 08:36:32;;;;;;;16.60;9.47;;;11.30;84.30;;;10.59;52.75;100699.97;5095766;28;20228;-74
2023/04/28 08:39:08;;;;;;;14.47;9.53;;;11.30;83.70;;;10.60;53.01;100702.50;5095838;28;20290;-75
2023/04/28 08:41:43;;;;;;;12.33;8.83;;;11.30;84.50;;;10.65;54.95;100702.81;5096356;28;20193;-75
2023/04/28 08:44:16;;;;;;;16.47;8.60;;;11.40;86.60;;;10.69;54.25;100708.69;5095707;28;20189;-75
2023/04/28 08:46:55;;;;;;;12.57;8.93;;;11.40;85.90;;;10.80;53.34;100703.06;5094370;28;20653;-74
2023/04/28 08:49:36;;;;;;;13.43;9.30;;;11.50;85.00;;;10.80;52.56;100703.06;5095553;28;20225;-75
2023/04/28 08:52:16;;;;;;;13.10;8.90;;;11.50;83.60;;;10.81;51.86;100698.53;5095600;28;20210;-74
2023/04/28 08:54:50;;;;;;;11.43;7.87;;;11.50;83.10;;;10.85;53.69;100690.03;5095670;28;20189;-75
2023/04/28 08:57:26;;;;;;;14.87;9.07;;;11.50;84.70;;;10.91;51.62;100691.19;5095234;28;20585;-75
2023/04/28 08:59:58;;;;;;;12.33;8.40;;;11.60;83.10;;;10.96;53.22;100699.59;5095067;28;20766;-73
2023/04/28 09:02:31;;;;;;;14.13;8.97;;;11.60;84.40;;;11.01;51.76;100691.91;5095624;28;20242;-73
2023/04/28 09:05:03;;;;;;;15.07;9.53;;;11.70;83.10;;;11.07;53.37;100684.03;5095606;28;20216;-73
2023/04/28 09:07:36;;;;;;;14.00;9.13;;;11.70;85.10;;;11.14;53.14;100678.84;5095335;28;20189;-73
2023/04/28 09:10:21;;;;;;;11.37;8.23;;;11.80;84.90;;;11.22;52.99;100678.88;5094844;28;20221;-73
2023/04/28 09:12:57;;;;;;;11.30;8.43;;;11.90;84.30;;;11.24;53.82;100671.50;5095247;28;20272;-73
2023/04/28 09:15:35;;;;;;;12.77;8.83;;;11.90;85.00;;;11.29;53.53;100669.16;5095205;28;20187;-73
2023/04/28 09:18:14;;;;;;;14.83;9.57;;;12.00;84.60;;;11.36;52.49;100675.53;5095735;28;20213;-74
2023/04/28 09:20:48;;;;;;;14.50;9.30;;;12.10;84.00;;;11.42;51.75;100664.13;5095022;28;20272;-73
2023/04/28 09:23:22;;;;;;;15.03;8.97;;;12.10;83.20;;;11.49;51.17;100654.41;5095808;28;20192;-73
2023/04/28 09:26:01;;;;;;;17.93;8.80;;;12.20;81.70;;;11.62;51.57;100646.69;5094982;28;20193;-73
2023/04/28 09:28:34;;;;;;;14.63;8.20;;;12.30;82.20;;;11.66;53.27;100649.88;5094741;28;20227;-73
2023/04/28 09:31:21;;;;;;;11.60;8.00;;;12.30;84.70;;;11.73;53.23;100647.38;5094517;28;20193;-73
2023/04/28 09:34:02;;;;;;;9.77;7.87;;;12.40;85.00;;;11.83;54.35;100645.34;5094742;28;20188;-73
2023/04/28 09:36:34;;;;;;;13.83;8.43;;;12.50;86.30;;;11.90;52.79;100646.34;5094625;28;20198;-73
2023/04/28 09:39:06;;;;;;;12.87;8.03;;;12.60;83.60;;;11.96;53.22;100642.97;5094597;28;20231;-74
2023/04/28 09:41:45;;;;;;;11.87;8.00;;;12.60;83.70;;;12.01;53.03;100641.47;5094354;28;20554;-74
2023/04/28 09:44:20;;;;;;;12.40;8.30;;;12.70;83.70;;;12.05;51.69;100633.91;5094654;28;20199;-72
2023/04/28 09:46:52;;;;;;;11.23;8.50;;;12.70;82.50;;;12.10;51.76;100628.84;5094230;28;20192;-73
2023/04/28 09:49:25;;;;;;;12.13;8.10;;;12.70;83.10;;;12.11;50.50;100622.47;5094323;28;20232;-72
2023/04/28 09:52:12;;;;;;;15.07;7.90;;;12.80;81.30;;;12.15;51.90;100626.50;5094380;28;20189;-74
2023/04/28 09:54:44;;;;;;;11.33;8.47;;;12.80;82.60;;;12.19;51.56;100623.28;5094315;28;20200;-74
2023/04/28 09:57:16;;;;;;;11.83;8.10;;;12.80;81.90;;;12.22;51.23;100622.13;5093984;28;20215;-74
2023/04/28 09:59:53;;;;;;;14.60;9.60;;;12.90;81.60;;;12.30;51.26;100624.75;5093826;28;20240;-73
2023/04/28 10:02:26;;;;;;;10.20;7.57;;;12.90;81.90;;;12.32;51.48;100622.75;5094157;28;20197;-73
2023/04/28 10:05:02;;;;;;;11.60;8.27;;;13.00;82.60;;;12.34;53.47;100623.41;5094176;28;20193;-73
2023/04/28 10:07:37;;;;;;;13.00;8.70;;;13.00;83.70;;;12.36;51.16;100625.91;5093776;28;20629;-73
2023/04/28 10:10:13;;;;;;;12.43;8.23;;;13.00;80.90;;;12.37;50.32;100628.41;5094029;28;20231;-73
2023/04/28 10:12:46;;;;;;;17.10;8.10;;;13.00;80.10;;;12.39;51.22;100626.41;5094021;28;20188;-73
2023/04/28 10:15:18;;;;;;;11.47;8.43;;;13.00;81.50;;;12.45;50.90;100627.53;5093986;28;20189;-73
2023/04/28 10:17:52;;;;;;;13.60;9.13;;;13.10;81.00;;;12.47;50.09;100622.81;5093548;28;20715;-73
2023/04/28 10:20:29;;;;;;;12.00;7.77;;;13.10;80.20;;;12.51;51.44;100630.38;5093573;28;20235;-73
2023/04/28 10:23:23;;;;;;;13.97;7.90;;;13.10;81.60;;;12.52;51.72;100632.03;5093896;28;20195;-73
2023/04/28 10:25:59;;;;;;;13.90;8.50;;;13.10;82.50;;;12.54;50.58;100630.00;5093471;28;20583;-73
2023/04/28 10:28:31;;;;;;;12.47;8.17;;;13.10;80.60;;;12.56;50.11;100624.47;5093420;28;20562;-73
2023/04/28 10:31:19;;;;;;;12.60;8.23;;;13.10;80.00;;;12.57;50.94;100629.66;5093777;28;20200;-73
2023/04/28 10:33:53;;;;;;;9.40;7.73;;;13.20;81.50;;;12.60;51.86;100615.88;5093400;28;20676;-73
2023/04/28 10:36:51;;;;;;;11.90;8.13;;;13.20;81.70;;;12.67;50.69;100619.53;5093729;28;20197;-73
2023/04/28 10:39:24;;;;;;;13.10;8.03;;;13.30;80.50;;;12.71;49.34;100617.31;5093289;28;20664;-73
2023/04/28 10:41:57;;;;;;;13.50;7.60;;;13.30;79.20;;;12.74;51.58;100608.91;5093664;28;20196;-73
2023/04/28 10:44:45;;;;;;;14.03;7.77;;;13.30;81.20;;;12.77;49.74;100611.25;5094224;28;20193;-73